createdAt,value
2023-02-15T00:02:03.699Z,39.60
2023-02-15T00:04:50.114Z,43.50
2023-02-15T00:07:19.508Z,36.40
2023-02-15T00:09:48.009Z,37.70
2023-02-15T00:12:16.443Z,37.50
2023-02-15T00:14:44.579Z,40.00
2023-02-15T00:17:12.213Z,44.30
2023-02-15T00:19:41.031Z,42.50
2023-02-15T00:22:09.195Z,39.40
2023-02-15T00:24:36.841Z,40.90
2023-02-15T00:27:04.502Z,39.60
2023-02-15T00:29:32.626Z,40.10
2023-02-15T00:32:00.252Z,40.20
2023-02-15T00:34:28.369Z,42.30
2023-02-15T00:36:58.273Z,44.60
2023-02-15T00:39:26.565Z,47.60
2023-02-15T00:41:54.278Z,44.70
2023-02-15T00:44:22.343Z,43.90
2023-02-15T00:46:50.108Z,46.50
2023-02-15T00:49:17.777Z,43.90
2023-02-15T00:51:45.527Z,43.20
2023-02-15T00:54:13.419Z,44.00
2023-02-15T00:56:41.124Z,46.90
2023-02-15T00:59:10.013Z,45.30
2023-02-15T01:01:37.746Z,47.00
2023-02-15T01:04:05.486Z,44.70
2023-02-15T01:06:33.315Z,43.50
2023-02-15T01:09:00.997Z,47.00
2023-02-15T01:11:28.690Z,45.00
2023-02-15T01:13:59.406Z,44.30
2023-02-15T01:16:28.863Z,42.90
2023-02-15T01:18:57.105Z,42.20
2023-02-15T01:21:26.266Z,44.60
2023-02-15T01:23:54.404Z,41.40
2023-02-15T01:26:22.163Z,44.80
2023-02-15T01:28:49.820Z,46.30
2023-02-15T01:31:20.276Z,43.90
2023-02-15T01:33:48.859Z,48.20
2023-02-15T01:36:18.340Z,45.50
2023-02-15T01:38:46.587Z,47.00
2023-02-15T01:41:28.119Z,44.50
2023-02-15T01:44:01.446Z,44.30
2023-02-15T01:46:37.689Z,44.40
2023-02-15T01:49:25.631Z,43.70
2023-02-15T01:51:53.936Z,44.30
2023-02-15T01:54:31.934Z,42.70
2023-02-15T01:57:04.561Z,44.00
2023-02-15T01:59:33.208Z,43.10
2023-02-15T02:02:01.950Z,42.90
2023-02-15T02:04:38.896Z,41.00
2023-02-15T02:07:07.540Z,42.20
2023-02-15T02:09:35.366Z,41.60
2023-02-15T02:12:03.256Z,42.20
2023-02-15T02:14:30.977Z,43.70
2023-02-15T02:17:13.056Z,41.90
2023-02-15T02:19:59.569Z,43.70
2023-02-15T02:22:41.464Z,45.70
2023-02-15T02:25:29.037Z,45.00
2023-02-15T02:28:12.413Z,48.30
2023-02-15T02:30:49.933Z,44.00
2023-02-15T02:33:41.304Z,46.60
2023-02-15T02:36:31.951Z,45.20
2023-02-15T02:39:08.582Z,46.80
2023-02-15T02:41:45.690Z,47.60
2023-02-15T02:44:38.427Z,47.70
2023-02-15T02:47:11.645Z,46.20
2023-02-15T02:49:41.779Z,47.60
2023-02-15T02:52:44.005Z,47.40
2023-02-15T02:55:31.942Z,47.00
2023-02-15T02:58:11.609Z,46.20
2023-02-15T03:00:44.763Z,45.90
2023-02-15T03:03:22.051Z,44.00
2023-02-15T03:05:52.491Z,43.70
2023-02-15T03:08:23.157Z,42.20
2023-02-15T03:10:54.735Z,43.60
2023-02-15T03:13:23.751Z,44.20
2023-02-15T03:16:11.281Z,42.20
2023-02-15T03:18:53.540Z,41.10
2023-02-15T03:21:27.341Z,32.30
2023-02-15T03:24:01.422Z,42.20
2023-02-15T03:26:29.949Z,39.60
2023-02-15T03:28:59.444Z,39.00
2023-02-15T03:31:29.981Z,36.40
2023-02-15T03:34:01.740Z,37.20
2023-02-15T03:36:35.403Z,41.70
2023-02-15T03:39:13.593Z,36.50
2023-02-15T03:41:53.641Z,30.90
2023-02-15T03:44:32.872Z,28.80
2023-02-15T03:47:07.387Z,27.50
2023-02-15T03:49:40.263Z,29.30
2023-02-15T03:52:09.795Z,26.30
2023-02-15T03:54:43.567Z,25.70
2023-02-15T03:57:37.961Z,29.40
2023-02-15T04:00:38.445Z,29.70
2023-02-15T04:03:15.398Z,26.80
2023-02-15T04:05:44.701Z,27.70
2023-02-15T04:08:13.388Z,28.00
2023-02-15T04:10:53.256Z,28.50
2023-02-15T04:13:32.843Z,27.70
2023-02-15T04:16:07.718Z,30.30
2023-02-15T04:18:58.647Z,29.10
2023-02-15T04:21:47.086Z,29.50
2023-02-15T04:24:34.111Z,29.30
2023-02-15T04:27:03.378Z,29.30
2023-02-15T04:29:31.458Z,31.50
2023-02-15T04:32:01.640Z,32.20
2023-02-15T04:34:29.430Z,31.60
2023-02-15T04:36:57.035Z,30.80
2023-02-15T04:39:24.653Z,31.70
2023-02-15T04:41:52.320Z,29.00
2023-02-15T04:44:20.002Z,32.70
2023-02-15T04:46:47.656Z,35.80
2023-02-15T04:49:15.361Z,37.30
2023-02-15T04:51:42.984Z,38.20
2023-02-15T04:54:10.592Z,38.20
2023-02-15T04:56:39.947Z,40.10
2023-02-15T04:59:07.590Z,36.10
2023-02-15T05:01:35.172Z,34.20
2023-02-15T05:04:03.732Z,35.70
2023-02-15T05:06:31.491Z,34.10
2023-02-15T05:09:01.842Z,34.90
2023-02-15T05:11:29.437Z,35.70
2023-02-15T05:13:57.088Z,35.70
2023-02-15T05:16:24.917Z,37.70
2023-02-15T05:18:52.609Z,37.90
2023-02-15T05:21:20.266Z,40.10
2023-02-15T05:23:47.881Z,42.10
2023-02-15T05:26:40.716Z,40.70
2023-02-15T05:29:09.354Z,43.00
2023-02-15T05:31:37.815Z,44.40
2023-02-15T05:34:05.680Z,45.60
2023-02-15T05:36:33.273Z,42.50
2023-02-15T05:39:01.181Z,43.90
2023-02-15T05:41:28.773Z,46.40
2023-02-15T05:43:57.641Z,41.70
2023-02-15T05:46:25.367Z,43.20
2023-02-15T05:48:52.972Z,42.90
2023-02-15T05:51:20.551Z,44.40
2023-02-15T05:53:48.171Z,44.80
2023-02-15T05:56:15.792Z,47.60
2023-02-15T05:58:43.488Z,50.10
2023-02-15T06:01:12.702Z,44.30
2023-02-15T06:03:41.034Z,42.70
2023-02-15T06:06:08.870Z,43.80
2023-02-15T06:08:37.391Z,44.30
2023-02-15T06:11:06.032Z,47.20
2023-02-15T06:13:36.592Z,48.10
2023-02-15T06:16:07.207Z,45.10
2023-02-15T06:18:35.100Z,45.30
2023-02-15T06:21:03.316Z,47.30
2023-02-15T06:23:30.973Z,48.00
2023-02-15T06:25:58.656Z,49.00
2023-02-15T06:28:26.554Z,50.20
2023-02-15T06:30:54.280Z,49.10
2023-02-15T06:33:22.730Z,49.90
2023-02-15T06:35:50.397Z,50.50
2023-02-15T06:38:18.593Z,49.20
2023-02-15T06:40:46.401Z,48.00
2023-02-15T06:43:14.424Z,50.80
2023-02-15T06:45:42.604Z,51.30
2023-02-15T06:48:10.737Z,54.70
2023-02-15T06:50:38.369Z,53.10
2023-02-15T06:53:06.041Z,54.70
2023-02-15T06:55:33.656Z,51.70
2023-02-15T06:58:01.409Z,50.40
2023-02-15T07:00:29.024Z,51.10
2023-02-15T07:02:58.785Z,50.40
2023-02-15T07:05:31.831Z,48.50
2023-02-15T07:08:00.069Z,46.90
2023-02-15T07:10:28.748Z,49.50
2023-02-15T07:12:56.571Z,47.20
2023-02-15T07:15:24.350Z,45.10
2023-02-15T07:17:52.022Z,52.80
2023-02-15T07:20:24.046Z,52.60
2023-02-15T07:22:52.226Z,39.90
2023-02-15T07:25:19.996Z,39.10
2023-02-15T07:27:47.752Z,41.60
2023-02-15T07:30:17.472Z,39.90
2023-02-15T07:33:05.439Z,40.80
2023-02-15T07:35:34.348Z,42.60
2023-02-15T07:38:02.200Z,42.10
2023-02-15T07:40:29.879Z,42.70
2023-02-15T07:43:00.093Z,44.20
2023-02-15T07:45:28.034Z,46.10
2023-02-15T07:47:55.720Z,43.50
2023-02-15T07:50:23.434Z,43.70
2023-02-15T07:52:51.038Z,43.70
2023-02-15T07:55:19.516Z,46.60
2023-02-15T07:57:48.561Z,46.10
2023-02-15T08:00:17.913Z,45.20
2023-02-15T08:02:50.127Z,45.10
2023-02-15T08:05:19.330Z,46.10
2023-02-15T08:07:47.088Z,46.30
2023-02-15T08:10:34.716Z,45.20
2023-02-15T08:13:02.364Z,45.40
2023-02-15T08:15:29.956Z,43.50
2023-02-15T08:17:57.529Z,43.50
2023-02-15T08:20:25.172Z,42.10
2023-02-15T08:22:52.768Z,41.70
2023-02-15T08:25:20.379Z,43.60
2023-02-15T08:27:48.009Z,42.00
2023-02-15T08:30:15.728Z,43.00
2023-02-15T08:32:43.347Z,42.80
2023-02-15T08:35:10.958Z,44.20
2023-02-15T08:37:38.556Z,45.80
2023-02-15T08:40:07.084Z,44.10
2023-02-15T08:42:34.817Z,44.90
2023-02-15T08:45:02.422Z,46.10
2023-02-15T08:47:30.074Z,44.80
2023-02-15T08:49:57.732Z,47.10
2023-02-15T08:52:25.358Z,46.60
2023-02-15T08:54:52.965Z,46.60
2023-02-15T08:57:20.710Z,46.90
2023-02-15T08:59:48.453Z,48.40
2023-02-15T09:02:16.036Z,48.50
2023-02-15T09:04:43.669Z,46.60
2023-02-15T09:07:11.298Z,48.50
2023-02-15T09:09:38.966Z,48.90
2023-02-15T09:12:06.590Z,47.40
2023-02-15T09:14:34.355Z,50.80
2023-02-15T09:17:02.055Z,50.80
2023-02-15T09:19:29.796Z,47.70
2023-02-15T09:21:57.441Z,52.30
2023-02-15T09:24:25.145Z,54.50
2023-02-15T09:26:52.875Z,53.10
2023-02-15T09:29:20.957Z,53.70
2023-02-15T09:31:50.971Z,53.40
2023-02-15T09:34:21.273Z,52.30
2023-02-15T09:36:49.741Z,53.00
2023-02-15T09:39:22.076Z,52.90
2023-02-15T09:42:05.692Z,54.70
2023-02-15T09:45:09.351Z,54.70
2023-02-15T09:48:05.397Z,53.90
2023-02-15T09:50:48.077Z,54.40
2023-02-15T09:53:38.884Z,59.50
2023-02-15T09:56:38.701Z,56.30
2023-02-15T09:59:14.871Z,56.50
2023-02-15T10:02:17.256Z,55.20
2023-02-15T10:04:51.745Z,55.60
2023-02-15T10:07:50.879Z,55.00
2023-02-15T10:10:59.052Z,56.70
2023-02-15T10:13:45.412Z,54.30
2023-02-15T10:16:30.376Z,52.10
2023-02-15T10:19:12.767Z,50.50
2023-02-15T10:21:47.958Z,51.40
2023-02-15T10:24:48.725Z,50.70
2023-02-15T10:27:21.235Z,49.10
2023-02-15T10:30:12.421Z,50.40
2023-02-15T10:32:59.686Z,46.90
2023-02-15T10:35:56.307Z,44.80
2023-02-15T10:38:37.631Z,45.40
2023-02-15T10:41:16.969Z,46.90
2023-02-15T10:44:09.623Z,47.80
2023-02-15T10:47:02.500Z,45.50
2023-02-15T10:49:47.128Z,48.90
2023-02-15T10:52:30.960Z,50.40
2023-02-15T10:55:27.723Z,45.10
2023-02-15T10:58:07.445Z,45.90
2023-02-15T11:00:50.264Z,48.00
2023-02-15T11:03:48.917Z,46.90
2023-02-15T11:06:19.002Z,49.70
2023-02-15T11:08:54.783Z,48.00
2023-02-15T11:11:25.185Z,46.70
2023-02-15T11:13:58.044Z,51.10
2023-02-15T11:16:47.815Z,53.00
2023-02-15T11:19:32.178Z,51.30
2023-02-15T11:22:05.788Z,51.00
2023-02-15T11:24:42.445Z,52.60
2023-02-15T11:27:29.497Z,52.40
2023-02-15T11:30:12.160Z,52.20
2023-02-15T11:32:42.141Z,52.40
2023-02-15T11:35:19.457Z,45.30
2023-02-15T11:37:56.325Z,46.80
2023-02-15T11:40:49.840Z,46.30
2023-02-15T11:43:40.399Z,45.80
2023-02-15T11:46:12.023Z,47.60
2023-02-15T11:48:40.374Z,50.00
2023-02-15T11:51:18.028Z,49.40
2023-02-15T11:53:46.292Z,55.90
2023-02-15T11:56:19.201Z,52.40
2023-02-15T11:58:52.619Z,52.80
2023-02-15T12:01:36.707Z,52.20
2023-02-15T12:04:25.467Z,52.50
2023-02-15T12:07:02.698Z,51.60
2023-02-15T12:09:37.517Z,49.90
2023-02-15T12:12:24.179Z,50.50
2023-02-15T12:14:54.661Z,50.20
2023-02-15T12:17:25.183Z,50.70
2023-02-15T12:19:56.748Z,51.90
2023-02-15T12:22:30.563Z,49.00
2023-02-15T12:25:03.897Z,49.20
2023-02-15T12:27:34.453Z,49.10
2023-02-15T12:30:08.715Z,47.70
2023-02-15T12:32:48.612Z,51.20
2023-02-15T12:35:29.046Z,53.90
2023-02-15T12:38:03.216Z,52.90
2023-02-15T12:40:32.677Z,53.80
2023-02-15T12:43:00.481Z,52.40
2023-02-15T12:45:31.605Z,55.70
2023-02-15T12:48:11.382Z,55.90
2023-02-15T12:50:43.176Z,58.60
2023-02-15T12:53:15.458Z,56.90
2023-02-15T12:55:52.818Z,58.70
2023-02-15T12:58:29.147Z,57.60
2023-02-15T13:01:16.806Z,57.30
2023-02-15T13:04:01.525Z,55.60
2023-02-15T13:06:31.913Z,55.40
2023-02-15T13:09:07.652Z,52.60
2023-02-15T13:11:35.434Z,53.60
2023-02-15T13:14:05.768Z,51.20
2023-02-15T13:16:37.606Z,53.90
2023-02-15T13:19:12.950Z,54.90
2023-02-15T13:21:44.871Z,56.30
2023-02-15T13:24:22.348Z,53.90
2023-02-15T13:26:50.129Z,53.70
2023-02-15T13:29:38.259Z,53.50
2023-02-15T13:32:11.963Z,54.90
2023-02-15T13:34:40.798Z,53.80
2023-02-15T13:37:11.473Z,58.30
2023-02-15T13:40:00.603Z,57.70
2023-02-15T13:42:39.433Z,55.70
2023-02-15T13:45:32.009Z,57.40
2023-02-15T13:48:21.827Z,56.50
2023-02-15T13:51:21.668Z,56.70
2023-02-15T13:54:07.609Z,53.60
2023-02-15T13:56:37.926Z,57.80
2023-02-15T13:59:41.400Z,56.10
2023-02-15T14:02:23.559Z,56.20
2023-02-15T14:05:23.239Z,58.10
2023-02-15T14:08:12.437Z,51.20
2023-02-15T14:10:57.633Z,52.20
2023-02-15T14:13:37.505Z,53.90
2023-02-15T14:16:40.640Z,54.20
2023-02-15T14:19:29.918Z,56.60
2023-02-15T14:22:08.881Z,53.50
2023-02-15T14:24:44.239Z,55.30
2023-02-15T14:27:38.671Z,56.00
2023-02-15T14:30:24.017Z,54.00
2023-02-15T14:32:57.206Z,57.30
2023-02-15T14:35:28.803Z,55.90
2023-02-15T14:38:02.625Z,58.30
2023-02-15T14:41:03.469Z,59.80
2023-02-15T14:44:08.318Z,58.70
2023-02-15T14:47:02.418Z,56.50
2023-02-15T14:49:34.638Z,57.80
2023-02-15T14:52:11.685Z,58.60
2023-02-15T14:54:39.340Z,56.20
2023-02-15T14:57:07.417Z,57.10
2023-02-15T14:59:44.197Z,58.60
2023-02-15T15:02:14.990Z,57.70
2023-02-15T15:04:46.628Z,55.10
2023-02-15T15:07:17.432Z,57.00
2023-02-15T15:09:48.728Z,53.90
2023-02-15T15:12:37.838Z,49.40
2023-02-15T15:15:06.379Z,51.60
2023-02-15T15:17:34.047Z,50.90
2023-02-15T15:20:14.734Z,51.60
2023-02-15T15:22:43.944Z,52.30
2023-02-15T15:25:34.701Z,52.10
2023-02-15T15:28:04.260Z,53.60
2023-02-15T15:30:31.909Z,54.20
2023-02-15T15:33:09.555Z,54.80
2023-02-15T15:36:08.474Z,56.30
2023-02-15T15:38:43.159Z,54.50
2023-02-15T15:41:23.809Z,56.10
2023-02-15T15:44:10.330Z,58.20
2023-02-15T15:47:03.617Z,56.80
2023-02-15T15:49:33.398Z,58.60
2023-02-15T15:52:17.254Z,59.50
2023-02-15T15:54:48.294Z,62.40
2023-02-15T15:57:38.654Z,63.00
2023-02-15T16:00:31.943Z,61.50
2023-02-15T16:02:59.598Z,62.50
2023-02-15T16:05:27.388Z,62.70
2023-02-15T16:07:55.023Z,63.60
2023-02-15T16:10:28.021Z,63.20
2023-02-15T16:12:56.553Z,62.00
2023-02-15T16:15:26.871Z,62.00
2023-02-15T16:17:57.493Z,64.80
2023-02-15T16:20:37.280Z,64.10
2023-02-15T16:23:16.481Z,64.50
2023-02-15T16:25:54.397Z,63.10
2023-02-15T16:28:22.233Z,64.10
2023-02-15T16:31:06.391Z,63.90
2023-02-15T16:33:37.624Z,62.20
2023-02-15T16:36:08.848Z,63.00
2023-02-15T16:38:42.680Z,59.50
2023-02-15T16:41:24.032Z,59.70
2023-02-15T16:43:54.413Z,56.40
2023-02-15T16:46:32.500Z,57.50
2023-02-15T16:49:03.741Z,56.50
2023-02-15T16:51:34.057Z,59.10
2023-02-15T16:54:07.275Z,58.70
2023-02-15T16:56:35.277Z,57.10
2023-02-15T16:59:02.973Z,60.50
2023-02-15T17:01:32.247Z,61.00
2023-02-15T17:04:21.529Z,60.50
2023-02-15T17:07:16.769Z,62.30
2023-02-15T17:09:57.723Z,60.10
2023-02-15T17:12:47.810Z,60.70
2023-02-15T17:15:34.980Z,59.20
2023-02-15T17:18:13.244Z,59.70
2023-02-15T17:20:42.908Z,60.80
2023-02-15T17:23:33.850Z,62.60
2023-02-15T17:26:12.501Z,62.20
2023-02-15T17:28:47.956Z,65.70
2023-02-15T17:31:17.711Z,74.30
2023-02-15T17:33:45.923Z,66.50
2023-02-15T17:36:17.315Z,66.20
2023-02-15T17:38:57.389Z,67.00
2023-02-15T17:41:30.708Z,65.50
2023-02-15T17:43:58.752Z,64.80
2023-02-15T17:46:27.714Z,65.60
2023-02-15T17:48:56.932Z,65.80
2023-02-15T17:51:24.550Z,64.20
2023-02-15T17:54:10.776Z,63.60
2023-02-15T17:56:39.169Z,65.80
2023-02-15T17:59:12.350Z,65.50
2023-02-15T18:02:05.688Z,63.90
2023-02-15T18:04:54.684Z,63.90
2023-02-15T18:07:41.178Z,62.50
2023-02-15T18:10:38.125Z,63.70
2023-02-15T18:13:05.786Z,64.30
2023-02-15T18:15:33.407Z,67.80
2023-02-15T18:18:02.269Z,66.50
2023-02-15T18:20:37.229Z,64.60
2023-02-15T18:23:05.950Z,67.80
2023-02-15T18:25:33.612Z,69.30
2023-02-15T18:28:01.259Z,69.00
2023-02-15T18:30:28.980Z,68.10
2023-02-15T18:32:57.519Z,70.00
2023-02-15T18:35:29.023Z,71.30
2023-02-15T18:37:57.111Z,71.90
2023-02-15T18:40:26.316Z,68.80
2023-02-15T18:42:56.812Z,68.30
2023-02-15T18:45:32.788Z,69.80
2023-02-15T18:48:00.638Z,69.10
2023-02-15T18:50:31.504Z,69.60
2023-02-15T18:52:59.194Z,66.50
2023-02-15T18:55:28.191Z,67.70
2023-02-15T18:57:57.075Z,63.20
2023-02-15T19:00:33.164Z,66.20
2023-02-15T19:03:04.915Z,64.60
2023-02-15T19:05:33.397Z,64.30
2023-02-15T19:08:02.054Z,65.80
2023-02-15T19:10:31.656Z,64.30
2023-02-15T19:12:59.364Z,65.10
2023-02-15T19:15:30.360Z,63.40
2023-02-15T19:17:58.397Z,62.00
2023-02-15T19:20:30.314Z,62.70
2023-02-15T19:22:58.370Z,62.70
2023-02-15T19:25:28.155Z,60.60
2023-02-15T19:27:56.346Z,63.30
2023-02-15T19:30:29.919Z,62.80
2023-02-15T19:32:58.557Z,62.90
2023-02-15T19:35:29.095Z,59.20
2023-02-15T19:37:58.619Z,63.00
2023-02-15T19:40:28.824Z,62.90
2023-02-15T19:42:56.752Z,61.60
2023-02-15T19:45:30.900Z,61.60
2023-02-15T19:48:01.240Z,63.20
2023-02-15T19:50:31.228Z,62.40
2023-02-15T19:52:59.036Z,62.40
2023-02-15T19:55:32.140Z,62.90
2023-02-15T19:58:01.945Z,61.30
2023-02-15T20:00:31.741Z,62.40
2023-02-15T20:03:00.272Z,59.90
2023-02-15T20:05:29.549Z,60.30
2023-02-15T20:07:58.182Z,60.80
2023-02-15T20:10:30.659Z,61.60
2023-02-15T20:12:58.675Z,63.10
2023-02-15T20:15:32.429Z,65.60
2023-02-15T20:18:02.780Z,62.60
2023-02-15T20:20:35.091Z,61.40
2023-02-15T20:23:02.813Z,63.60
2023-02-15T20:25:34.084Z,62.60
2023-02-15T20:28:01.857Z,62.60
2023-02-15T20:30:31.579Z,62.60
2023-02-15T20:32:59.245Z,62.90
2023-02-15T20:35:31.048Z,62.00
2023-02-15T20:38:02.744Z,63.50
2023-02-15T20:40:33.183Z,62.50
2023-02-15T20:43:01.184Z,63.50
2023-02-15T20:45:31.749Z,66.10
2023-02-15T20:48:01.838Z,65.00
2023-02-15T20:50:31.575Z,69.10
2023-02-15T20:53:00.448Z,63.80
2023-02-15T20:55:30.290Z,67.70
2023-02-15T20:57:59.055Z,67.10
2023-02-15T21:00:29.258Z,66.80
2023-02-15T21:03:01.325Z,70.00
2023-02-15T21:05:32.660Z,69.90
2023-02-15T21:08:01.889Z,68.60
2023-02-15T21:10:32.189Z,70.60
2023-02-15T21:13:01.245Z,71.60
2023-02-15T21:15:33.213Z,71.70
2023-02-15T21:18:06.710Z,71.70
2023-02-15T21:20:35.244Z,70.90
2023-02-15T21:23:05.020Z,74.50
2023-02-15T21:25:37.055Z,73.70
2023-02-15T21:28:08.422Z,78.40
2023-02-15T21:30:36.144Z,77.10
2023-02-15T21:33:03.781Z,75.00
2023-02-15T21:35:31.412Z,77.60
2023-02-15T21:37:59.032Z,75.80
2023-02-15T21:40:28.416Z,77.30
2023-02-15T21:43:15.374Z,75.40
2023-02-15T21:46:15.952Z,76.70
2023-02-15T21:48:43.864Z,75.50
2023-02-15T21:51:30.095Z,78.90
2023-02-15T21:53:57.714Z,81.30
2023-02-15T21:56:25.381Z,78.10
2023-02-15T21:58:53.006Z,75.30
2023-02-15T22:01:26.208Z,78.20
2023-02-15T22:03:55.688Z,76.10
2023-02-15T22:06:23.667Z,77.00
2023-02-15T22:08:51.324Z,79.70
2023-02-15T22:11:22.536Z,81.30
2023-02-15T22:13:50.671Z,75.50
2023-02-15T22:16:20.434Z,78.40
2023-02-15T22:18:48.645Z,76.80
2023-02-15T22:21:20.716Z,78.30
2023-02-15T22:23:48.420Z,74.80
2023-02-15T22:26:22.953Z,73.70
2023-02-15T22:28:51.070Z,71.30
2023-02-15T22:31:21.129Z,73.00
2023-02-15T22:33:52.302Z,74.50
2023-02-15T22:36:28.338Z,76.30
2023-02-15T22:38:56.903Z,73.90
2023-02-15T22:41:27.752Z,74.30
2023-02-15T22:43:56.423Z,73.60
2023-02-15T22:46:25.239Z,74.80
2023-02-15T22:48:53.521Z,73.90
2023-02-15T22:51:23.528Z,73.20
2023-02-15T22:53:52.324Z,71.40
2023-02-15T22:56:28.370Z,74.20
2023-02-15T22:59:00.706Z,73.40
2023-02-15T23:01:31.396Z,75.30
2023-02-15T23:04:02.675Z,76.80
2023-02-15T23:06:31.629Z,74.60
2023-02-15T23:09:00.663Z,72.60
2023-02-15T23:11:28.794Z,72.70
2023-02-15T23:13:56.619Z,73.70
2023-02-15T23:16:24.267Z,74.40
2023-02-15T23:18:52.148Z,73.40
2023-02-15T23:21:26.661Z,74.30
2023-02-15T23:24:15.729Z,72.10
2023-02-15T23:26:43.333Z,73.70
2023-02-15T23:29:24.372Z,72.30
2023-02-15T23:31:53.084Z,74.90
2023-02-15T23:34:26.328Z,73.80
2023-02-15T23:36:54.021Z,76.80
2023-02-15T23:39:45.830Z,73.10
2023-02-15T23:42:16.641Z,73.50
2023-02-15T23:44:45.714Z,71.70
2023-02-15T23:47:41.970Z,73.60
2023-02-15T23:50:21.948Z,69.30
2023-02-15T23:52:50.602Z,69.60
2023-02-15T23:55:19.173Z,67.20
2023-02-15T23:57:47.301Z,70.00
